createdAt,value
2018-07-19T00:01:20.558Z,19.53
2018-07-19T00:03:48.915Z,16.73
2018-07-19T00:06:17.315Z,19.23
2018-07-19T00:08:45.652Z,16.80
2018-07-19T00:11:14.011Z,18.53
2018-07-19T00:13:42.350Z,17.43
2018-07-19T00:16:10.656Z,15.70
2018-07-19T00:18:38.998Z,15.83
2018-07-19T00:21:07.324Z,15.73
2018-07-19T00:23:35.659Z,14.67
2018-07-19T00:26:04.019Z,14.97
2018-07-19T00:28:32.366Z,13.97
2018-07-19T00:31:00.690Z,13.17
2018-07-19T00:33:29.006Z,13.07
2018-07-19T00:35:57.334Z,14.27
2018-07-19T00:38:25.727Z,12.07
2018-07-19T00:40:54.090Z,13.63
2018-07-19T00:43:22.451Z,13.70
2018-07-19T00:45:50.782Z,13.33
2018-07-19T00:48:19.140Z,12.57
2018-07-19T00:50:47.504Z,12.90
2018-07-19T00:53:15.836Z,11.13
2018-07-19T00:55:44.211Z,11.20
2018-07-19T00:58:12.555Z,10.73
2018-07-19T01:00:41.023Z,10.57
2018-07-19T01:03:09.191Z,11.53
2018-07-19T01:05:37.374Z,11.30
2018-07-19T01:08:05.896Z,10.47
2018-07-19T01:10:34.266Z,10.43
2018-07-19T01:13:02.576Z,10.20
2018-07-19T01:15:30.941Z,10.83
2018-07-19T01:17:59.269Z,9.10
2018-07-19T01:20:27.570Z,10.20
2018-07-19T01:22:55.961Z,8.87
2018-07-19T01:25:24.418Z,9.03
2018-07-19T01:27:52.800Z,9.80
2018-07-19T01:30:21.132Z,9.23
2018-07-19T01:32:49.472Z,9.00
2018-07-19T01:35:17.819Z,9.10
2018-07-19T01:37:46.150Z,8.60
2018-07-19T01:40:14.530Z,8.97
2018-07-19T01:42:44.014Z,7.83
2018-07-19T01:45:12.987Z,8.87
2018-07-19T01:47:41.732Z,8.00
2018-07-19T01:50:10.940Z,7.77
2018-07-19T01:52:39.249Z,7.23
2018-07-19T01:55:08.006Z,8.07
2018-07-19T01:57:36.380Z,7.93
2018-07-19T02:00:05.549Z,7.33
2018-07-19T02:02:33.844Z,6.80
2018-07-19T02:05:02.211Z,10.77
2018-07-19T02:07:30.529Z,10.93
2018-07-19T02:09:58.868Z,9.63
2018-07-19T02:12:27.194Z,10.13
2018-07-19T02:14:55.585Z,11.90
2018-07-19T02:17:23.942Z,13.03
2018-07-19T02:19:52.251Z,12.67
2018-07-19T02:22:20.568Z,12.87
2018-07-19T02:24:48.917Z,14.13
2018-07-19T02:27:17.217Z,12.67
2018-07-19T02:29:45.568Z,14.37
2018-07-19T02:32:13.885Z,12.20
2018-07-19T02:34:42.224Z,12.33
2018-07-19T02:37:10.675Z,13.30
2018-07-19T02:39:38.992Z,13.30
2018-07-19T02:42:07.297Z,13.50
2018-07-19T02:44:35.644Z,11.90
2018-07-19T02:47:03.939Z,11.50
2018-07-19T02:49:32.286Z,11.93
2018-07-19T02:52:00.595Z,11.07
2018-07-19T02:54:28.938Z,12.03
2018-07-19T02:56:57.266Z,10.73
2018-07-19T02:59:25.619Z,10.53
2018-07-19T03:01:53.955Z,10.03
2018-07-19T03:04:22.294Z,10.13
2018-07-19T03:06:50.629Z,10.17
2018-07-19T03:09:18.960Z,10.50
2018-07-19T03:11:47.283Z,10.47
2018-07-19T03:14:15.607Z,10.20
2018-07-19T03:16:43.947Z,10.00
2018-07-19T03:19:12.259Z,10.03
2018-07-19T03:21:40.554Z,9.97
2018-07-19T03:24:08.912Z,8.97
2018-07-19T03:26:37.230Z,9.17
2018-07-19T03:29:05.551Z,9.40
2018-07-19T03:31:33.852Z,8.53
2018-07-19T03:34:02.165Z,8.37
2018-07-19T03:36:30.479Z,8.20
2018-07-19T03:38:58.762Z,8.00
2018-07-19T03:41:27.062Z,7.87
2018-07-19T03:43:55.388Z,7.80
2018-07-19T03:46:23.683Z,9.10
2018-07-19T03:48:51.996Z,7.23
2018-07-19T03:51:20.275Z,6.33
2018-07-19T03:53:48.606Z,7.53
2018-07-19T03:56:16.903Z,7.00
2018-07-19T03:58:45.222Z,7.00
2018-07-19T04:01:13.640Z,6.67
2018-07-19T04:03:41.959Z,6.67
2018-07-19T04:06:10.273Z,6.47
2018-07-19T04:08:38.602Z,6.40
2018-07-19T04:11:06.946Z,6.57
2018-07-19T04:13:35.297Z,6.00
2018-07-19T04:16:03.635Z,6.17
2018-07-19T04:18:31.948Z,5.83
2018-07-19T04:21:00.285Z,6.83
2018-07-19T04:23:28.583Z,6.30
2018-07-19T04:25:56.878Z,6.30
2018-07-19T04:28:25.201Z,6.37
2018-07-19T04:30:53.581Z,6.70
2018-07-19T04:33:21.898Z,5.90
2018-07-19T04:35:50.180Z,5.73
2018-07-19T04:38:18.506Z,5.73
2018-07-19T04:40:46.885Z,5.87
2018-07-19T04:43:15.202Z,5.93
2018-07-19T04:45:43.625Z,5.53
2018-07-19T04:48:11.959Z,5.23
2018-07-19T04:50:40.291Z,5.60
2018-07-19T04:53:08.611Z,5.03
2018-07-19T04:55:36.953Z,4.87
2018-07-19T04:58:05.313Z,4.97
2018-07-19T05:00:33.603Z,5.13
2018-07-19T05:03:01.964Z,4.73
2018-07-19T05:05:30.281Z,5.03
2018-07-19T05:07:58.590Z,5.00
2018-07-19T05:10:26.890Z,5.33
2018-07-19T05:12:55.227Z,4.70
2018-07-19T05:15:23.522Z,4.60
2018-07-19T05:17:51.858Z,4.33
2018-07-19T05:20:20.207Z,4.37
2018-07-19T05:22:48.493Z,4.63
2018-07-19T05:25:16.790Z,4.60
2018-07-19T05:27:45.113Z,4.53
2018-07-19T05:30:13.428Z,4.20
2018-07-19T05:32:41.730Z,4.43
2018-07-19T05:35:10.047Z,3.90
2018-07-19T05:37:38.354Z,3.73
2018-07-19T05:40:06.664Z,4.13
2018-07-19T05:42:35.000Z,3.90
2018-07-19T05:45:03.312Z,3.77
2018-07-19T05:47:31.618Z,4.00
2018-07-19T05:49:59.899Z,4.30
2018-07-19T05:52:28.203Z,3.97
2018-07-19T05:54:56.515Z,3.53
2018-07-19T05:57:24.807Z,4.17
2018-07-19T05:59:53.124Z,4.03
2018-07-19T06:02:21.419Z,4.93
2018-07-19T06:04:49.713Z,4.43
2018-07-19T06:07:18.020Z,4.33
2018-07-19T06:09:46.380Z,6.73
2018-07-19T06:12:14.659Z,9.33
2018-07-19T06:14:42.974Z,13.47
2018-07-19T06:17:11.294Z,26.13
2018-07-19T06:19:39.591Z,18.97
2018-07-19T06:22:07.972Z,22.83
2018-07-19T06:24:36.272Z,15.47
2018-07-19T06:27:04.709Z,14.27
2018-07-19T06:29:33.015Z,9.50
2018-07-19T06:32:01.486Z,10.23
2018-07-19T06:34:29.815Z,8.23
2018-07-19T06:36:58.210Z,10.17
2018-07-19T06:39:26.489Z,8.03
2018-07-19T06:41:54.798Z,5.63
2018-07-19T06:44:23.412Z,5.63
2018-07-19T06:46:51.741Z,3.90
2018-07-19T06:49:20.156Z,4.53
2018-07-19T06:51:48.501Z,3.97
2018-07-19T06:54:16.872Z,4.20
2018-07-19T06:56:45.194Z,3.70
2018-07-19T06:59:13.513Z,3.90
2018-07-19T07:01:41.890Z,4.40
2018-07-19T07:04:10.201Z,5.83
2018-07-19T07:06:38.538Z,5.07
2018-07-19T07:09:08.731Z,9.27
2018-07-19T07:11:37.057Z,11.07
2018-07-19T07:14:08.858Z,7.53
2018-07-19T07:16:37.198Z,6.47
2018-07-19T07:19:05.790Z,5.47
2018-07-19T07:21:34.129Z,4.17
2018-07-19T07:24:02.414Z,3.63
2018-07-19T07:26:30.741Z,4.40
2018-07-19T07:28:59.099Z,6.13
2018-07-19T07:31:27.417Z,12.90
2018-07-19T07:33:55.775Z,11.80
2018-07-19T07:36:24.118Z,7.90
2018-07-19T07:38:52.442Z,7.13
2018-07-19T07:41:20.729Z,5.43
2018-07-19T07:43:49.054Z,5.90
2018-07-19T07:46:17.860Z,4.87
2018-07-19T07:48:46.183Z,4.53
2018-07-19T07:51:14.290Z,3.10
2018-07-19T07:53:42.608Z,8.93
2018-07-19T07:56:10.912Z,4.53
2018-07-19T07:58:39.191Z,3.77
2018-07-19T08:01:07.508Z,7.70
2018-07-19T08:03:35.802Z,12.40
2018-07-19T08:06:04.206Z,16.23
2018-07-19T08:08:32.498Z,15.53
2018-07-19T08:11:00.799Z,9.20
2018-07-19T08:13:29.117Z,9.23
2018-07-19T08:15:57.499Z,6.10
2018-07-19T08:18:25.774Z,4.27
2018-07-19T08:20:54.064Z,6.70
2018-07-19T08:23:22.360Z,7.23
2018-07-19T08:25:50.832Z,21.33
2018-07-19T08:28:19.174Z,20.90
2018-07-19T08:30:47.518Z,19.20
2018-07-19T08:33:15.861Z,12.60
2018-07-19T08:35:44.349Z,9.70
2018-07-19T08:38:12.630Z,7.73
2018-07-19T08:40:40.943Z,6.17
2018-07-19T08:43:09.310Z,5.20
2018-07-19T08:45:37.623Z,3.97
2018-07-19T08:48:06.187Z,5.47
2018-07-19T08:50:34.482Z,6.60
2018-07-19T08:53:02.801Z,10.77
2018-07-19T08:55:30.876Z,15.37
2018-07-19T08:57:59.170Z,17.87
2018-07-19T09:00:27.463Z,13.80
2018-07-19T09:02:55.828Z,16.53
2018-07-19T09:05:24.131Z,9.93
2018-07-19T09:07:52.454Z,11.10
2018-07-19T09:10:20.723Z,7.13
2018-07-19T09:12:49.058Z,5.43
2018-07-19T09:15:17.412Z,5.07
2018-07-19T09:17:45.438Z,4.40
2018-07-19T09:20:13.746Z,3.70
2018-07-19T09:22:42.044Z,3.00
2018-07-19T09:25:10.468Z,3.50
2018-07-19T09:27:38.740Z,4.30
2018-07-19T09:30:08.879Z,4.40
2018-07-19T09:32:37.428Z,7.33
2018-07-19T09:35:05.769Z,19.27
2018-07-19T09:37:34.144Z,18.83
2018-07-19T09:40:02.594Z,13.53
2018-07-19T09:42:30.926Z,11.23
2018-07-19T09:44:59.331Z,13.20
2018-07-19T09:47:27.720Z,15.63
2018-07-19T09:49:56.157Z,13.80
2018-07-19T09:52:24.523Z,12.47
2018-07-19T09:54:59.458Z,10.10
2018-07-19T09:57:28.744Z,10.93
2018-07-19T09:59:57.201Z,11.37
2018-07-19T10:02:25.974Z,13.20
2018-07-19T10:04:54.639Z,14.77
2018-07-19T10:07:23.290Z,15.90
2018-07-19T10:09:51.642Z,13.67
2018-07-19T10:12:20.000Z,16.00
2018-07-19T10:14:49.033Z,15.17
2018-07-19T10:17:17.646Z,18.07
2018-07-19T10:19:45.958Z,17.50
2018-07-19T10:22:14.306Z,13.70
2018-07-19T10:24:42.715Z,14.40
2018-07-19T10:27:11.059Z,13.03
2018-07-19T10:29:39.424Z,13.70
2018-07-19T10:32:07.855Z,12.60
2018-07-19T10:34:36.116Z,12.13
2018-07-19T10:37:04.491Z,12.50
2018-07-19T10:39:32.822Z,11.87
2018-07-19T10:42:01.297Z,17.53
2018-07-19T10:44:29.692Z,24.73
2018-07-19T10:46:58.030Z,27.53
2018-07-19T10:49:26.374Z,30.73
2018-07-19T10:51:54.832Z,32.20
2018-07-19T10:54:23.188Z,25.53
2018-07-19T10:56:51.643Z,24.13
2018-07-19T10:59:20.053Z,24.90
2018-07-19T11:01:48.382Z,22.30
2018-07-19T11:04:16.940Z,22.63
2018-07-19T11:06:45.386Z,21.73
2018-07-19T11:09:13.971Z,40.43
2018-07-19T11:11:42.579Z,42.70
2018-07-19T11:14:11.279Z,35.77
2018-07-19T11:16:39.804Z,27.73
2018-07-19T11:19:08.202Z,26.53
2018-07-19T11:21:36.659Z,22.80
2018-07-19T11:24:05.191Z,26.80
2018-07-19T11:26:33.722Z,33.50
2018-07-19T11:29:02.160Z,31.57
2018-07-19T11:31:30.564Z,28.63
2018-07-19T11:33:58.990Z,32.20
2018-07-19T11:36:27.382Z,31.73
2018-07-19T11:38:55.799Z,29.17
2018-07-19T11:41:24.778Z,28.30
2018-07-19T11:43:53.207Z,25.13
2018-07-19T11:46:21.595Z,24.17
2018-07-19T11:48:49.995Z,23.30
2018-07-19T11:51:18.495Z,21.13
2018-07-19T11:53:46.904Z,22.23
2018-07-19T11:56:15.321Z,20.40
2018-07-19T11:58:43.726Z,20.20
2018-07-19T12:01:12.360Z,20.67
2018-07-19T12:03:40.733Z,19.70
2018-07-19T12:06:09.085Z,18.37
2018-07-19T12:08:37.398Z,18.27
2018-07-19T12:11:05.751Z,16.47
2018-07-19T12:13:34.431Z,16.00
2018-07-19T12:16:03.086Z,15.67
2018-07-19T12:18:31.431Z,15.47
2018-07-19T12:20:59.786Z,13.70
2018-07-19T12:23:28.245Z,12.23
2018-07-19T12:25:57.865Z,15.27
2018-07-19T12:28:27.104Z,11.47
2018-07-19T12:30:55.437Z,10.97
2018-07-19T12:33:23.878Z,11.23
2018-07-19T12:35:52.210Z,10.77
2018-07-19T12:38:20.658Z,9.67
2018-07-19T12:40:49.351Z,9.83
2018-07-19T12:43:17.675Z,9.47
2018-07-19T12:45:46.086Z,9.50
2018-07-19T12:48:14.398Z,9.03
2018-07-19T12:50:42.858Z,8.07
2018-07-19T12:53:11.274Z,7.87
2018-07-19T12:55:39.635Z,7.50
2018-07-19T12:58:07.969Z,6.87
2018-07-19T13:00:36.580Z,6.83
2018-07-19T13:03:04.888Z,6.97
2018-07-19T13:05:33.226Z,6.70
2018-07-19T13:08:01.544Z,6.93
2018-07-19T13:10:29.862Z,7.23
2018-07-19T13:12:58.412Z,6.50
2018-07-19T13:15:28.032Z,6.50
2018-07-19T13:17:56.387Z,6.70
2018-07-19T13:20:24.726Z,6.70
2018-07-19T13:22:53.055Z,6.60
2018-07-19T13:25:24.430Z,6.00
2018-07-19T13:27:52.988Z,5.73
2018-07-19T13:30:21.326Z,6.63
2018-07-19T13:32:49.661Z,6.13
2018-07-19T13:35:17.995Z,5.37
2018-07-19T13:37:46.334Z,5.90
2018-07-19T13:40:14.656Z,6.20
2018-07-19T13:42:43.160Z,5.60
2018-07-19T13:45:11.655Z,6.17
2018-07-19T13:47:40.130Z,5.60
2018-07-19T13:50:08.688Z,5.57
2018-07-19T13:52:42.430Z,4.90
2018-07-19T13:55:11.136Z,4.90
2018-07-19T13:57:39.664Z,5.13
2018-07-19T14:00:08.374Z,5.73
2018-07-19T14:02:36.903Z,5.07
2018-07-19T14:05:05.450Z,5.10
2018-07-19T14:07:34.116Z,5.23
2018-07-19T14:10:02.707Z,5.50
2018-07-19T14:12:31.165Z,5.00
2018-07-19T14:14:59.622Z,4.70
2018-07-19T14:17:28.106Z,5.47
2018-07-19T14:19:56.396Z,4.90
2018-07-19T14:22:24.903Z,4.37
2018-07-19T14:24:53.452Z,4.50
2018-07-19T14:27:21.907Z,4.40
2018-07-19T14:29:50.366Z,4.17
2018-07-19T14:32:18.837Z,4.37
2018-07-19T14:34:47.287Z,4.53
2018-07-19T14:37:15.828Z,3.70
2018-07-19T14:39:44.520Z,3.70
2018-07-19T14:42:12.984Z,4.03
2018-07-19T14:44:41.458Z,3.87
2018-07-19T14:47:10.007Z,3.77
2018-07-19T14:49:38.481Z,3.73
2018-07-19T14:52:07.247Z,3.57
2018-07-19T14:54:35.827Z,3.50
2018-07-19T14:57:04.294Z,4.20
2018-07-19T14:59:32.770Z,3.70
2018-07-19T15:02:01.227Z,3.80
2018-07-19T15:04:29.694Z,2.57
2018-07-19T15:06:58.126Z,2.90
2018-07-19T15:09:26.605Z,2.50
2018-07-19T15:11:55.055Z,2.67
2018-07-19T15:14:23.558Z,2.80
2018-07-19T15:16:52.111Z,2.40
2018-07-19T15:19:20.534Z,4.57
2018-07-19T15:21:48.728Z,11.70
2018-07-19T15:24:17.173Z,9.70
2018-07-19T15:26:45.426Z,9.57
2018-07-19T15:29:13.918Z,8.20
2018-07-19T15:31:42.427Z,4.90
2018-07-19T15:34:15.326Z,5.27
2018-07-19T15:36:46.478Z,6.30
2018-07-19T15:39:14.765Z,5.37
2018-07-19T15:41:43.448Z,4.13
2018-07-19T15:44:14.895Z,6.47
2018-07-19T15:46:43.488Z,9.27
2018-07-19T15:49:14.219Z,13.20
2018-07-19T15:51:43.944Z,14.23
2018-07-19T15:54:12.408Z,11.43
2018-07-19T15:56:40.922Z,10.17
2018-07-19T15:59:09.506Z,8.80
2018-07-19T16:01:38.025Z,9.07
2018-07-19T16:04:06.478Z,7.87
2018-07-19T16:06:36.019Z,7.83
2018-07-19T16:09:06.670Z,7.17
2018-07-19T16:11:35.312Z,7.17
2018-07-19T16:14:03.767Z,8.37
2018-07-19T16:16:32.387Z,7.03
2018-07-19T16:19:00.569Z,7.17
2018-07-19T16:21:29.134Z,9.20
2018-07-19T16:23:57.613Z,14.00
2018-07-19T16:26:26.070Z,16.00
2018-07-19T16:28:54.682Z,18.93
2018-07-19T16:31:23.266Z,20.47
2018-07-19T16:33:51.727Z,20.50
2018-07-19T16:36:20.332Z,20.77
2018-07-19T16:38:48.859Z,19.00
2018-07-19T16:41:17.502Z,18.83
2018-07-19T16:43:45.981Z,19.17
2018-07-19T16:46:14.538Z,17.00
2018-07-19T16:48:43.261Z,16.67
2018-07-19T16:51:11.718Z,17.07
2018-07-19T16:53:40.002Z,14.27
2018-07-19T16:56:08.533Z,13.50
2018-07-19T16:58:36.988Z,11.57
2018-07-19T17:01:05.759Z,10.73
2018-07-19T17:03:34.178Z,10.07
2018-07-19T17:06:02.469Z,9.53
2018-07-19T17:08:30.786Z,8.80
2018-07-19T17:10:59.081Z,8.53
2018-07-19T17:13:27.595Z,8.53
2018-07-19T17:15:55.915Z,9.53
2018-07-19T17:18:24.200Z,9.87
2018-07-19T17:20:52.510Z,9.80
2018-07-19T17:23:20.823Z,11.00
2018-07-19T17:25:49.172Z,12.30
2018-07-19T17:28:17.554Z,13.37
2018-07-19T17:30:45.954Z,12.57
2018-07-19T17:33:14.462Z,11.90
2018-07-19T17:35:42.789Z,11.73
2018-07-19T17:38:11.074Z,12.30
2018-07-19T17:40:39.382Z,12.20
2018-07-19T17:43:07.722Z,12.60
2018-07-19T17:45:36.060Z,11.80
2018-07-19T17:48:04.413Z,10.90
2018-07-19T17:50:32.702Z,15.60
2018-07-19T17:53:01.051Z,12.97
2018-07-19T17:55:29.350Z,16.63
2018-07-19T17:57:57.646Z,14.70
2018-07-19T18:00:25.950Z,7.23
2018-07-19T18:02:54.357Z,5.80
2018-07-19T18:05:22.659Z,3.50
2018-07-19T18:07:51.012Z,3.03
2018-07-19T18:10:19.326Z,2.60
2018-07-19T18:12:47.625Z,2.00
2018-07-19T18:15:15.982Z,2.87
2018-07-19T18:17:44.313Z,2.57
2018-07-19T18:20:12.606Z,3.43
2018-07-19T18:22:40.910Z,3.27
2018-07-19T18:25:09.192Z,2.50
2018-07-19T18:27:37.541Z,3.40
2018-07-19T18:30:06.964Z,5.50
2018-07-19T18:32:35.334Z,5.77
2018-07-19T18:35:03.653Z,6.90
2018-07-19T18:37:31.994Z,4.10
2018-07-19T18:40:00.348Z,4.33
2018-07-19T18:42:28.644Z,4.40
2018-07-19T18:44:57.046Z,4.03
2018-07-19T18:47:25.382Z,7.57
2018-07-19T18:49:53.714Z,12.00
2018-07-19T18:52:26.381Z,9.37
2018-07-19T18:54:54.683Z,8.50
2018-07-19T18:57:22.756Z,7.07
2018-07-19T18:59:51.030Z,5.13
2018-07-19T19:02:19.443Z,4.30
2018-07-19T19:04:47.743Z,3.27
2018-07-19T19:07:16.113Z,2.30
2018-07-19T19:09:44.868Z,2.73
2018-07-19T19:12:13.181Z,5.40
2018-07-19T19:14:41.499Z,6.97
2018-07-19T19:17:09.572Z,5.57
2018-07-19T19:19:37.832Z,7.03
2018-07-19T19:22:06.140Z,5.10
2018-07-19T19:24:34.455Z,5.90
2018-07-19T19:27:02.807Z,12.17
2018-07-19T19:29:31.143Z,9.70
2018-07-19T19:31:59.434Z,6.83
2018-07-19T19:34:27.815Z,4.60
2018-07-19T19:36:56.145Z,3.80
2018-07-19T19:39:24.531Z,3.50
2018-07-19T19:41:53.141Z,2.80
2018-07-19T19:44:21.451Z,2.73
2018-07-19T19:46:49.769Z,9.80
2018-07-19T19:49:18.114Z,19.07
2018-07-19T19:51:46.431Z,9.37
2018-07-19T19:54:14.819Z,5.30
2018-07-19T19:56:43.166Z,3.97
2018-07-19T19:59:11.663Z,3.00
2018-07-19T20:01:40.055Z,5.83
2018-07-19T20:04:08.384Z,10.90
2018-07-19T20:06:36.771Z,10.17
2018-07-19T20:09:06.798Z,8.57
2018-07-19T20:11:35.221Z,12.37
2018-07-19T20:14:03.713Z,15.43
2018-07-19T20:16:31.803Z,15.23
2018-07-19T20:19:00.117Z,28.50
2018-07-19T20:21:28.515Z,38.83
2018-07-19T20:23:56.859Z,28.10
2018-07-19T20:26:25.213Z,19.57
2018-07-19T20:28:53.485Z,12.90
2018-07-19T20:31:21.848Z,10.57
2018-07-19T20:33:50.185Z,7.40
2018-07-19T20:36:18.560Z,5.77
2018-07-19T20:38:46.952Z,12.93
2018-07-19T20:41:15.317Z,11.20
2018-07-19T20:43:43.647Z,8.67
2018-07-19T20:46:11.998Z,6.00
2018-07-19T20:48:40.335Z,22.00
2018-07-19T20:51:08.675Z,12.53
2018-07-19T20:53:37.022Z,7.73
2018-07-19T20:56:05.358Z,5.60
2018-07-19T20:58:34.002Z,4.80
2018-07-19T21:01:02.330Z,2.97
2018-07-19T21:03:30.676Z,3.23
2018-07-19T21:05:58.852Z,3.17
2018-07-19T21:08:26.931Z,2.87
2018-07-19T21:10:55.257Z,2.60
2018-07-19T21:13:23.559Z,3.30
2018-07-19T21:15:51.887Z,2.50
2018-07-19T21:18:20.306Z,19.40
2018-07-19T21:20:48.677Z,36.30
2018-07-19T21:23:16.966Z,31.50
2018-07-19T21:25:45.332Z,18.30
2018-07-19T21:28:13.717Z,34.73
2018-07-19T21:30:42.080Z,33.57
2018-07-19T21:33:10.407Z,20.17
2018-07-19T21:35:39.095Z,13.53
2018-07-19T21:38:07.456Z,7.50
2018-07-19T21:40:35.756Z,5.63
2018-07-19T21:43:04.160Z,4.03
2018-07-19T21:45:32.506Z,2.93
2018-07-19T21:48:00.855Z,5.40
2018-07-19T21:50:29.156Z,8.30
2018-07-19T21:52:57.580Z,4.17
2018-07-19T21:55:25.909Z,3.10
2018-07-19T21:57:54.223Z,3.87
2018-07-19T22:00:22.559Z,4.33
2018-07-19T22:02:50.933Z,3.47
2018-07-19T22:05:19.316Z,5.17
2018-07-19T22:07:47.714Z,8.57
2018-07-19T22:10:16.170Z,18.33
2018-07-19T22:12:44.521Z,13.67
2018-07-19T22:15:12.906Z,5.57
2018-07-19T22:17:41.259Z,4.13
2018-07-19T22:20:09.906Z,23.53
2018-07-19T22:22:38.234Z,28.83
2018-07-19T22:25:06.644Z,13.00
2018-07-19T22:27:34.980Z,6.10
2018-07-19T22:30:03.073Z,4.13
2018-07-19T22:32:31.363Z,3.50
2018-07-19T22:34:59.688Z,3.17
2018-07-19T22:37:28.008Z,3.00
2018-07-19T22:39:56.340Z,2.67
2018-07-19T22:42:24.835Z,2.40
2018-07-19T22:44:53.145Z,2.47
2018-07-19T22:47:21.430Z,2.50
2018-07-19T22:49:49.751Z,2.67
2018-07-19T22:52:18.049Z,2.30
2018-07-19T22:54:46.413Z,2.47
2018-07-19T22:57:14.761Z,2.20
2018-07-19T22:59:43.064Z,2.13
2018-07-19T23:02:11.146Z,2.33
2018-07-19T23:04:39.189Z,2.07
2018-07-19T23:07:07.504Z,7.63
2018-07-19T23:09:35.803Z,6.53
2018-07-19T23:12:04.126Z,4.20
2018-07-19T23:14:32.230Z,4.00
2018-07-19T23:17:00.635Z,3.80
2018-07-19T23:19:28.972Z,3.60
2018-07-19T23:21:57.016Z,3.23
2018-07-19T23:24:25.328Z,3.17
2018-07-19T23:26:53.693Z,25.33
2018-07-19T23:29:22.098Z,10.33
2018-07-19T23:31:50.487Z,10.40
2018-07-19T23:34:18.855Z,6.80
2018-07-19T23:36:50.861Z,83.27
2018-07-19T23:39:22.206Z,5.10
2018-07-19T23:42:53.610Z,4.03
2018-07-19T23:45:33.263Z,3.57
2018-07-19T23:48:01.692Z,3.77
2018-07-19T23:50:29.967Z,3.47
2018-07-19T23:52:58.328Z,4.83
2018-07-19T23:55:26.594Z,9.57
2018-07-19T23:57:54.965Z,9.53
